Time;durP1;ratioP1;P1;durP2;ratioP2;P2;SDS_P1;SDS_P2;PMS_P1;PMS_P2;Temp;Humidity;BMP_temperature;BMP_pressure;BME280_temperature;BME280_humidity;BME280_pressure;Samples;Min_cycle;Max_cycle;Signal;HPM_P1;HPM_P2
2022/07/26 00:01:04;;;;;;;11.32;7.10;;;;;;;26.44;51.34;99352.91;5049878;28;20029;-42
2022/07/26 00:03:30;;;;;;;7.25;6.45;;;;;;;25.98;52.77;99354.25;5050636;28;20132;-45
2022/07/26 00:05:55;;;;;;;9.70;6.82;;;;;;;25.83;52.93;99355.44;5053607;28;20104;-45
2022/07/26 00:08:20;;;;;;;8.15;6.68;;;;;;;25.83;53.28;99353.50;5054238;28;20029;-41
2022/07/26 00:10:49;;;;;;;8.80;6.43;;;;;;;26.03;52.61;99349.44;5054066;28;20051;-44
2022/07/26 00:13:16;;;;;;;9.97;6.80;;;;;;;26.39;51.54;99362.06;5054082;28;20450;-44
2022/07/26 00:15:42;;;;;;;11.23;6.30;;;;;;;26.26;51.74;99361.06;5053749;28;20294;-43
2022/07/26 00:18:08;;;;;;;8.65;6.25;;;;;;;25.81;53.09;99363.91;5042265;28;20481;-37
2022/07/26 00:20:34;;;;;;;7.35;6.65;;;;;;;25.84;53.05;99357.06;5033954;28;20065;-37
2022/07/26 00:23:00;;;;;;;7.32;6.32;;;;;;;25.73;53.27;99351.88;5034081;28;20025;-37
2022/07/26 00:25:25;;;;;;;9.45;6.70;;;;;;;25.92;52.88;99364.47;5033341;28;20024;-37
2022/07/26 00:27:51;;;;;;;7.22;6.53;;;;;;;26.69;50.83;99360.38;5034887;28;20035;-37
2022/07/26 00:30:16;;;;;;;11.30;6.63;;;;;;;26.11;52.28;99366.97;5033692;28;20519;-37
2022/07/26 00:32:42;;;;;;;8.25;6.90;;;;;;;26.09;52.25;99353.63;5033738;28;20025;-36
2022/07/26 00:35:08;;;;;;;11.77;6.68;;;;;;;25.86;53.34;99363.00;5033394;28;20028;-37
2022/07/26 00:37:33;;;;;;;8.30;6.78;;;;;;;26.00;52.79;99360.97;5033444;28;20461;-37
2022/07/26 00:39:59;;;;;;;7.20;6.20;;;;;;;26.41;51.44;99364.47;5033410;28;20508;-35
2022/07/26 00:42:24;;;;;;;8.70;6.70;;;;;;;26.33;51.47;99366.03;5033399;28;20034;-37
2022/07/26 00:44:50;;;;;;;10.30;6.38;;;;;;;25.93;52.58;99366.91;5033434;28;20025;-37
2022/07/26 00:47:16;;;;;;;8.88;6.72;;;;;;;25.94;53.06;99365.75;5033295;28;20434;-36
2022/07/26 00:49:42;;;;;;;9.65;6.45;;;;;;;26.11;52.36;99372.41;5033596;28;20069;-37
2022/07/26 00:52:08;;;;;;;7.32;6.25;;;;;;;26.05;52.37;99369.03;5033260;28;20033;-37
2022/07/26 00:54:35;;;;;;;8.05;6.47;;;;;;;26.64;50.85;99362.44;5033232;28;20021;-36
2022/07/26 00:57:00;;;;;;;12.20;6.50;;;;;;;26.06;52.23;99367.09;5033066;28;20026;-36
2022/07/26 00:59:26;;;;;;;7.72;6.75;;;;;;;25.78;52.95;99364.56;5033366;28;20595;-36
2022/07/26 01:01:52;;;;;;;10.10;6.88;;;;;;;25.66;53.15;99351.50;5033246;28;20465;-36
2022/07/26 01:04:17;;;;;;;10.40;6.60;;;;;;;25.60;53.81;99362.88;5032983;28;20036;-36
2022/07/26 01:06:43;;;;;;;9.00;6.70;;;;;;;25.82;52.99;99360.09;5031763;28;20035;-36
2022/07/26 01:09:09;;;;;;;10.50;7.00;;;;;;;26.31;51.23;99360.91;5032961;28;20048;-36
2022/07/26 01:11:35;;;;;;;8.05;6.60;;;;;;;25.80;52.64;99359.59;5032799;28;20046;-36
2022/07/26 01:14:00;;;;;;;9.02;6.50;;;;;;;25.60;53.54;99354.69;5032648;28;20440;-36
2022/07/26 01:16:26;;;;;;;8.52;6.50;;;;;;;25.56;53.64;99360.75;5032934;28;20021;-37
2022/07/26 01:18:51;;;;;;;10.23;6.60;;;;;;;25.56;53.65;99359.97;5032494;28;20053;-37
2022/07/26 01:21:17;;;;;;;8.48;6.50;;;;;;;26.17;51.87;99362.16;5033121;28;20449;-37
2022/07/26 01:23:43;;;;;;;8.45;6.40;;;;;;;25.91;52.17;99351.94;5032882;28;20041;-36
2022/07/26 01:26:09;;;;;;;7.03;6.30;;;;;;;25.67;52.84;99357.78;5032599;28;20022;-37
2022/07/26 01:28:36;;;;;;;11.43;6.30;;;;;;;25.49;53.36;99356.88;5032720;28;20496;-37
2022/07/26 01:31:03;;;;;;;9.13;6.40;;;;;;;25.45;53.42;99353.97;5032324;28;20060;-36
2022/07/26 01:33:29;;;;;;;8.23;6.32;;;;;;;25.43;53.54;99350.75;5032681;28;20083;-36
2022/07/26 01:35:54;;;;;;;8.02;6.13;;;;;;;26.26;51.09;99346.63;5032775;28;20025;-36
2022/07/26 01:38:20;;;;;;;9.73;6.35;;;;;;;25.60;52.95;99346.53;5032581;28;20022;-38
2022/07/26 01:40:45;;;;;;;7.65;6.13;;;;;;;25.44;53.35;99357.81;5032086;28;20026;-36
2022/07/26 01:43:11;;;;;;;8.38;5.90;;;;;;;25.27;53.74;99353.06;5032274;28;20021;-37
2022/07/26 01:45:36;;;;;;;8.10;6.05;;;;;;;25.19;53.81;99342.91;5032040;28;20025;-36
2022/07/26 01:48:02;;;;;;;9.88;6.13;;;;;;;25.47;53.17;99346.28;5031961;28;20033;-37
2022/07/26 01:50:27;;;;;;;8.18;6.10;;;;;;;25.59;52.83;99356.63;5032328;28;20036;-36
2022/07/26 01:52:53;;;;;;;7.72;6.03;;;;;;;25.38;53.60;99352.81;5032216;28;20485;-37
2022/07/26 01:55:18;;;;;;;9.70;5.75;;;;;;;25.30;53.60;99344.28;5032168;28;20045;-37
2022/07/26 01:57:45;;;;;;;8.80;5.88;;;;;;;25.32;53.61;99342.06;5032423;28;20039;-37
2022/07/26 02:00:11;;;;;;;11.73;5.75;;;;;;;25.34;53.20;99344.44;5032336;28;20029;-37
2022/07/26 02:02:37;;;;;;;9.52;6.20;;;;;;;25.75;51.79;99325.09;5031632;28;20315;-37
2022/07/26 02:05:03;;;;;;;9.02;5.90;;;;;;;25.42;52.71;99335.53;5046013;28;20050;-36
2022/07/26 02:07:40;;;;;;;9.73;6.07;;;;;;;25.13;53.72;99341.41;5052261;28;20071;-37
2022/07/26 02:10:07;;;;;;;7.00;5.18;;;;;;;25.15;53.21;99339.16;5050011;28;20025;-36
2022/07/26 02:12:33;;;;;;;7.35;5.43;;;;;;;25.23;53.07;99337.69;5051305;28;20057;-37
2022/07/26 02:14:58;;;;;;;7.88;5.50;;;;;;;25.51;51.91;99338.28;5051483;28;20052;-37
2022/07/26 02:17:24;;;;;;;6.68;5.20;;;;;;;25.44;52.02;99330.59;5051506;28;20072;-36
2022/07/26 02:19:50;;;;;;;8.05;5.50;;;;;;;25.26;52.85;99335.09;5051628;28;20028;-36
2022/07/26 02:22:16;;;;;;;8.95;5.28;;;;;;;25.05;53.29;99328.53;5051486;28;20056;-36
2022/07/26 02:24:41;;;;;;;8.40;5.15;;;;;;;24.96;53.58;99332.03;5051518;28;20460;-36
2022/07/26 02:27:07;;;;;;;6.78;5.28;;;;;;;25.24;52.87;99334.63;5049795;28;20438;-36
2022/07/26 02:29:32;;;;;;;8.18;5.35;;;;;;;25.93;50.76;99334.19;5050891;28;20021;-37
2022/07/26 02:31:58;;;;;;;9.27;5.68;;;;;;;25.26;52.33;99328.88;5051114;28;20027;-36
2022/07/26 02:34:24;;;;;;;9.70;5.47;;;;;;;24.90;53.93;99327.00;5050834;28;20074;-36
2022/07/26 02:36:50;;;;;;;6.82;5.40;;;;;;;24.69;54.54;99334.84;5051295;28;20053;-36
2022/07/26 02:39:16;;;;;;;6.15;5.50;;;;;;;24.75;54.34;99342.59;5051528;28;20032;-37
2022/07/26 02:41:42;;;;;;;9.70;5.78;;;;;;;25.07;53.66;99339.91;5050763;28;20017;-37
2022/07/26 02:44:08;;;;;;;8.63;5.50;;;;;;;25.55;52.08;99340.09;5050747;28;20021;-37
2022/07/26 02:46:33;;;;;;;6.93;5.43;;;;;;;25.38;52.40;99340.00;5050985;28;20021;-37
2022/07/26 02:48:59;;;;;;;9.98;5.50;;;;;;;25.13;52.65;99336.78;5050810;28;20024;-37
2022/07/26 02:51:25;;;;;;;9.70;5.25;;;;;;;25.11;53.00;99343.63;5051343;28;20017;-37
2022/07/26 02:53:52;;;;;;;6.65;5.40;;;;;;;25.09;52.87;99343.13;5051055;28;20025;-37
2022/07/26 02:56:18;;;;;;;8.93;5.63;;;;;;;25.17;52.77;99339.69;5050435;28;20472;-37
2022/07/26 02:58:43;;;;;;;6.80;5.05;;;;;;;25.75;49.48;99340.66;5050837;28;20059;-37
2022/07/26 03:01:09;;;;;;;11.32;5.28;;;;;;;25.07;52.81;99350.81;5044763;28;20103;-37
2022/07/26 03:03:34;;;;;;;13.40;5.68;;;;;;;24.72;53.87;99356.78;5047442;28;20027;-37
2022/07/26 03:06:00;;;;;;;9.18;5.70;;;;;;;24.67;54.14;99350.66;5050583;28;20047;-37
2022/07/26 03:08:25;;;;;;;10.13;5.65;;;;;;;24.55;54.06;99356.63;5042178;28;20118;-37
2022/07/26 03:10:51;;;;;;;12.50;5.78;;;;;;;24.57;54.41;99349.78;5042172;28;20065;-35
2022/07/26 03:13:16;;;;;;;12.20;6.57;;;;;;;24.63;54.78;99352.38;5050208;28;20407;-35
2022/07/26 03:15:41;;;;;;;8.05;5.72;;;;;;;24.58;55.00;99359.56;5050192;28;20025;-36
2022/07/26 03:18:07;;;;;;;37.67;25.52;;;;;;;24.41;55.74;99364.78;5041491;28;20076;-36
2022/07/26 03:20:32;;;;;;;10.85;6.20;;;;;;;24.34;55.88;99364.41;5038982;28;20044;-36
2022/07/26 03:22:58;;;;;;;12.25;6.30;;;;;;;24.26;56.35;99367.84;5050748;28;20461;-36
2022/07/26 03:25:23;;;;;;;15.25;6.97;;;;;;;24.16;57.04;99369.66;5050671;28;20089;-36
2022/07/26 03:27:48;;;;;;;10.80;6.40;;;;;;;24.35;56.77;99372.25;5046295;28;20017;-35
2022/07/26 03:30:14;;;;;;;16.67;9.00;;;;;;;24.45;57.19;99375.88;5047589;28;20104;-36
2022/07/26 03:32:40;;;;;;;13.98;9.30;;;;;;;24.42;57.60;99373.75;5050856;28;20465;-37
2022/07/26 03:35:06;;;;;;;12.55;9.00;;;;;;;24.09;58.77;99374.69;5050871;28;20017;-38
2022/07/26 03:37:32;;;;;;;10.20;9.10;;;;;;;23.97;59.42;99374.38;5051450;28;20632;-36
2022/07/26 03:39:58;;;;;;;13.27;9.23;;;;;;;24.30;58.73;99375.06;5054609;28;20024;-36
2022/07/26 03:42:23;;;;;;;11.15;8.82;;;;;;;24.49;57.90;99374.94;5054339;28;20484;-36
2022/07/26 03:44:49;;;;;;;11.15;8.05;;;;;;;25.22;55.60;99385.03;5049148;28;20021;-37
2022/07/26 03:47:14;;;;;;;13.15;9.45;;;;;;;25.02;56.64;99383.59;5053753;28;20480;-37
2022/07/26 03:49:40;;;;;;;14.02;9.25;;;;;;;24.78;57.45;99387.41;5054498;28;20468;-36
2022/07/26 03:52:05;;;;;;;14.60;9.40;;;;;;;24.74;57.28;99386.41;5052609;28;20154;-36
2022/07/26 03:54:31;;;;;;;15.05;9.70;;;;;;;24.82;57.17;99380.22;5054693;28;20025;-37
2022/07/26 03:56:56;;;;;;;11.50;9.30;;;;;;;25.24;56.29;99386.34;5054417;28;20099;-37
2022/07/26 03:59:23;;;;;;;10.93;9.13;;;;;;;26.00;54.02;99388.25;5053876;28;20025;-36
2022/07/26 04:01:49;;;;;;;13.90;9.15;;;;;;;25.57;55.39;99380.66;5053723;28;20021;-37
2022/07/26 04:04:16;;;;;;;20.65;12.82;;;;;;;25.66;54.90;99373.31;5054162;28;20025;-37
2022/07/26 04:06:42;;;;;;;23.58;15.55;;;;;;;25.77;54.77;99370.31;5054269;28;20104;-37
2022/07/26 04:09:08;;;;;;;16.85;10.30;;;;;;;26.02;53.81;99379.75;5051964;28;20454;-37
2022/07/26 04:11:34;;;;;;;24.88;9.38;;;;;;;26.37;53.71;99380.66;5041718;28;20156;-37
2022/07/26 04:13:59;;;;;;;15.80;9.00;;;;;;;27.31;51.11;99374.81;5033324;28;20052;-36
2022/07/26 04:16:25;;;;;;;14.77;9.20;;;;;;;27.00;51.67;99364.84;5041915;28;20118;-35
2022/07/26 04:18:51;;;;;;;19.13;9.43;;;;;;;26.98;52.18;99371.75;5039822;28;20017;-35
2022/07/26 04:21:16;;;;;;;20.45;9.98;;;;;;;26.90;52.33;99373.34;5033293;28;20056;-37
2022/07/26 04:23:42;;;;;;;25.52;18.92;;;;;;;27.29;51.14;99369.66;5033334;28;20037;-36
2022/07/26 04:26:07;;;;;;;22.33;17.50;;;;;;;27.68;49.69;99369.72;5032945;28;20469;-36
2022/07/26 04:28:33;;;;;;;17.35;12.90;;;;;;;28.76;47.40;99368.53;5032474;28;20036;-37
2022/07/26 04:31:00;;;;;;;14.23;8.48;;;;;;;28.55;47.91;99371.28;5032014;28;20010;-37
2022/07/26 04:33:25;;;;;;;16.55;8.63;;;;;;;28.43;48.55;99366.50;5031092;28;20079;-37
2022/07/26 04:35:51;;;;;;;16.15;8.30;;;;;;;28.62;47.97;99377.03;5030718;28;20052;-36
2022/07/26 04:38:17;;;;;;;11.95;10.23;;;;;;;28.87;46.49;99372.47;5030732;28;20079;-36
2022/07/26 04:40:43;;;;;;;15.18;7.95;;;;;;;29.07;45.39;99359.88;5030482;28;20029;-37
2022/07/26 04:43:09;;;;;;;11.93;7.95;;;;;;;30.16;42.80;99376.16;5030980;28;20087;-37
2022/07/26 04:45:34;;;;;;;9.68;8.10;;;;;;;29.88;43.74;99368.59;5031111;28;20033;-37
2022/07/26 04:48:00;;;;;;;11.52;7.43;;;;;;;29.84;44.23;99369.63;5032370;28;20170;-37
2022/07/26 04:50:28;;;;;;;10.57;7.47;;;;;;;29.90;43.35;99371.00;5032270;28;20105;-36
2022/07/26 04:52:54;;;;;;;11.07;7.90;;;;;;;30.11;43.15;99379.91;5032738;28;20049;-37
2022/07/26 04:55:21;;;;;;;13.82;7.55;;;;;;;30.91;41.65;99370.19;5032706;28;20178;-37
2022/07/26 04:57:47;;;;;;;11.35;8.10;;;;;;;31.11;41.27;99376.66;5032877;28;20029;-37
2022/07/26 05:00:14;;;;;;;14.02;8.10;;;;;;;30.87;41.73;99372.03;5032585;28;20033;-37
2022/07/26 05:02:40;;;;;;;13.48;7.93;;;;;;;30.90;41.35;99376.03;5032600;28;20033;-37
2022/07/26 05:05:07;;;;;;;15.05;8.07;;;;;;;30.99;41.11;99382.19;5032502;28;20037;-36
2022/07/26 05:07:44;;;;;;;11.57;8.50;;;;;;;31.52;40.08;99380.13;5032444;28;20025;-38
2022/07/26 05:10:10;;;;;;;10.95;8.07;;;;;;;32.33;38.69;99376.22;5048781;28;20128;-36
2022/07/26 05:12:35;;;;;;;10.25;8.05;;;;;;;31.93;38.90;99378.03;5052524;28;20137;-37
2022/07/26 05:15:02;;;;;;;9.75;8.27;;;;;;;31.92;38.75;99370.13;5052787;28;20033;-37
2022/07/26 05:17:27;;;;;;;11.13;8.13;;;;;;;31.91;38.76;99377.56;5052352;28;20033;-38
2022/07/26 05:19:53;;;;;;;10.55;8.35;;;;;;;32.02;38.42;99366.06;5052341;28;20175;-37
2022/07/26 05:22:18;;;;;;;11.85;8.30;;;;;;;32.90;37.03;99368.38;5052621;28;20021;-38
2022/07/26 05:24:44;;;;;;;12.15;9.00;;;;;;;32.84;36.32;99361.59;5052055;28;20032;-38
2022/07/26 05:27:09;;;;;;;11.25;8.48;;;;;;;32.43;36.90;99344.59;5052065;28;20116;-37
2022/07/26 05:29:34;;;;;;;10.32;8.75;;;;;;;32.49;37.15;99365.16;5051900;28;20028;-36
2022/07/26 05:32:00;;;;;;;12.48;8.48;;;;;;;32.73;36.60;99356.66;5052109;28;20412;-37
2022/07/26 05:34:25;;;;;;;10.55;8.25;;;;;;;33.37;35.95;99359.09;5051997;28;20036;-37
2022/07/26 05:36:51;;;;;;;12.18;8.65;;;;;;;33.96;34.73;99361.69;5051725;28;20021;-37
2022/07/26 05:39:16;;;;;;;10.60;8.23;;;;;;;33.66;35.07;99362.38;5051214;28;20495;-36
2022/07/26 05:41:42;;;;;;;9.30;8.30;;;;;;;33.58;34.99;99366.16;5051465;28;20043;-36
2022/07/26 05:44:08;;;;;;;9.73;8.52;;;;;;;33.67;34.36;99366.72;5051583;28;20396;-37
2022/07/26 05:46:36;;;;;;;9.18;8.20;;;;;;;34.20;34.25;99369.56;5051390;28;20055;-37
2022/07/26 05:49:03;;;;;;;10.80;8.35;;;;;;;34.37;33.61;99370.22;5051409;28;20032;-36
2022/07/26 05:51:29;;;;;;;10.20;8.25;;;;;;;34.22;33.70;99370.00;5051936;28;20021;-37
2022/07/26 05:53:54;;;;;;;10.82;8.02;;;;;;;34.23;33.88;99365.25;5051619;28;20033;-37
2022/07/26 05:56:20;;;;;;;15.40;10.57;;;;;;;34.26;33.57;99370.84;5051328;28;20033;-37
2022/07/26 05:58:45;;;;;;;19.42;11.40;;;;;;;34.56;32.99;99367.31;5051144;28;20040;-36
2022/07/26 06:01:11;;;;;;;11.30;8.60;;;;;;;34.52;33.14;99372.00;5050553;28;20119;-37
2022/07/26 06:03:37;;;;;;;15.55;9.07;;;;;;;34.22;33.86;99372.75;5051738;28;20033;-37
2022/07/26 06:06:02;;;;;;;13.00;9.00;;;;;;;34.42;33.44;99367.94;5051769;28;20400;-39
2022/07/26 06:08:28;;;;;;;12.95;8.43;;;;;;;34.98;32.74;99360.75;5046000;28;20083;-37
2022/07/26 06:10:54;;;;;;;17.30;11.52;;;;;;;35.53;31.70;99365.69;5031057;28;20509;-36
2022/07/26 06:13:20;;;;;;;11.55;8.52;;;;;;;35.16;31.90;99360.94;5031270;28;20128;-37
2022/07/26 06:15:45;;;;;;;11.02;9.43;;;;;;;35.12;32.33;99354.56;5031275;28;20599;-37
2022/07/26 06:18:11;;;;;;;11.35;8.10;;;;;;;35.32;31.95;99352.44;5039368;28;20029;-38
2022/07/26 06:20:39;;;;;;;10.10;8.25;;;;;;;35.96;31.04;99363.28;5050825;28;20100;-37
2022/07/26 06:23:04;;;;;;;11.52;10.00;;;;;;;36.06;30.50;99361.75;5051093;28;20024;-37
2022/07/26 06:25:30;;;;;;;15.02;9.90;;;;;;;35.72;30.87;99352.81;5051178;28;20025;-37
2022/07/26 06:27:55;;;;;;;10.60;9.25;;;;;;;35.82;30.57;99346.59;5051373;28;20087;-36
2022/07/26 06:30:21;;;;;;;11.70;8.98;;;;;;;35.90;30.50;99345.44;5050711;28;20017;-37
2022/07/26 06:32:46;;;;;;;10.40;8.18;;;;;;;36.75;29.73;99343.63;5050421;28;20484;-37
2022/07/26 06:35:13;;;;;;;12.65;8.60;;;;;;;36.46;30.12;99337.09;5050858;28;20558;-38
2022/07/26 06:37:40;;;;;;;12.63;8.60;;;;;;;36.31;30.04;99339.00;5050780;28;20025;-38
2022/07/26 06:40:08;;;;;;;11.27;8.77;;;;;;;36.02;30.48;99341.56;5050790;28;20027;-37
2022/07/26 06:42:34;;;;;;;12.27;9.20;;;;;;;36.56;30.62;99333.59;5050202;28;20021;-36
2022/07/26 06:45:00;;;;;;;10.05;8.38;;;;;;;37.24;29.38;99325.53;5050681;28;20029;-36
2022/07/26 06:47:26;;;;;;;10.88;8.85;;;;;;;36.77;29.58;99333.72;5050659;28;20116;-37
2022/07/26 06:49:51;;;;;;;9.82;8.07;;;;;;;36.89;29.83;99329.78;5050538;28;20063;-37
2022/07/26 06:52:17;;;;;;;12.18;9.05;;;;;;;36.93;29.23;99324.25;5050457;28;20017;-37
2022/07/26 06:54:43;;;;;;;9.38;8.35;;;;;;;37.34;29.30;99321.19;5050765;28;20028;-36
2022/07/26 06:57:08;;;;;;;11.98;8.85;;;;;;;37.21;29.74;99318.00;5050726;28;20025;-37
2022/07/26 06:59:34;;;;;;;11.32;8.65;;;;;;;37.24;29.32;99319.97;5050603;28;20086;-37
2022/07/26 07:02:00;;;;;;;10.65;9.57;;;;;;;36.76;29.75;99314.69;5050158;28;20020;-37
2022/07/26 07:04:30;;;;;;;10.20;9.00;;;;;;;36.15;30.82;99312.38;5050048;28;20035;-37
2022/07/26 07:07:01;;;;;;;14.18;9.30;;;;;;;37.23;29.51;99317.63;5050557;28;20100;-36
2022/07/26 07:09:26;;;;;;;11.25;8.80;;;;;;;37.03;29.65;99304.06;5050015;28;20128;-37
2022/07/26 07:11:52;;;;;;;12.20;9.13;;;;;;;37.12;29.37;99317.56;5050583;28;20508;-37
2022/07/26 07:14:17;;;;;;;10.07;9.13;;;;;;;37.20;29.43;99323.94;5049967;28;20427;-37
2022/07/26 07:16:43;;;;;;;11.02;9.90;;;;;;;36.18;30.93;99322.72;5050346;28;20067;-36
2022/07/26 07:19:08;;;;;;;14.45;9.75;;;;;;;37.00;29.56;99315.19;5033839;28;20100;-36
2022/07/26 07:21:33;;;;;;;11.85;9.77;;;;;;;36.46;30.36;99318.53;5030343;28;20025;-37
2022/07/26 07:23:59;;;;;;;10.13;9.10;;;;;;;36.37;30.48;99316.09;5030636;28;20385;-36
2022/07/26 07:26:25;;;;;;;13.57;9.20;;;;;;;36.17;30.91;99325.88;5030393;28;20406;-37
2022/07/26 07:28:50;;;;;;;10.23;9.07;;;;;;;36.60;30.20;99303.94;5030397;28;20032;-37
2022/07/26 07:31:16;;;;;;;12.38;9.38;;;;;;;37.35;29.26;99322.78;5030096;28;20045;-37
2022/07/26 07:33:42;;;;;;;13.63;9.25;;;;;;;36.85;30.22;99317.13;5029973;28;20091;-37
2022/07/26 07:36:07;;;;;;;14.93;9.60;;;;;;;37.19;29.65;99317.59;5030363;28;20103;-37
2022/07/26 07:38:33;;;;;;;10.75;8.95;;;;;;;37.56;29.23;99320.00;5030430;28;20311;-37
2022/07/26 07:40:58;;;;;;;10.32;9.05;;;;;;;38.14;28.47;99318.00;5030216;28;20508;-37
2022/07/26 07:43:24;;;;;;;10.35;9.13;;;;;;;38.07;28.38;99325.53;5030317;28;20125;-37
2022/07/26 07:45:49;;;;;;;10.80;9.68;;;;;;;37.98;28.47;99319.59;5029794;28;20108;-37
2022/07/26 07:48:15;;;;;;;15.55;10.68;;;;;;;37.93;28.91;99321.59;5029984;28;20100;-35
2022/07/26 07:50:40;;;;;;;10.45;8.75;;;;;;;37.94;28.13;99312.06;5029644;28;20476;-37
2022/07/26 07:53:06;;;;;;;9.95;9.00;;;;;;;38.51;27.20;99311.13;5029801;28;20075;-37
2022/07/26 07:55:31;;;;;;;12.25;8.73;;;;;;;38.40;27.25;99313.16;5030100;28;20021;-37
2022/07/26 07:57:57;;;;;;;10.90;9.85;;;;;;;38.07;27.91;99314.44;5029623;28;20112;-37
2022/07/26 08:00:22;;;;;;;10.10;9.10;;;;;;;37.88;28.54;99310.09;5030127;28;20159;-37
2022/07/26 08:02:47;;;;;;;11.80;9.52;;;;;;;38.16;28.55;99312.06;5029921;28;20090;-36
2022/07/26 08:05:13;;;;;;;10.82;9.40;;;;;;;39.10;27.45;99306.91;5029826;28;20017;-36
2022/07/26 08:07:39;;;;;;;10.60;9.30;;;;;;;38.36;28.12;99308.81;5030181;28;20481;-37
2022/07/26 08:10:05;;;;;;;11.77;9.20;;;;;;;38.09;27.85;99304.53;5029550;28;20364;-37
2022/07/26 08:12:31;;;;;;;10.95;8.98;;;;;;;38.02;28.17;99312.84;5030227;28;20044;-37
2022/07/26 08:14:56;;;;;;;9.80;8.77;;;;;;;37.81;27.69;99305.34;5029875;28;20042;-38
2022/07/26 08:17:22;;;;;;;10.48;9.13;;;;;;;38.39;26.63;99297.69;5030667;28;20037;-36
2022/07/26 08:19:47;;;;;;;10.30;9.30;;;;;;;37.90;27.51;99297.38;5049277;28;20121;-36
2022/07/26 08:22:13;;;;;;;10.80;9.70;;;;;;;37.58;28.06;99297.41;5049575;28;20032;-37
2022/07/26 08:24:39;;;;;;;13.07;9.55;;;;;;;36.97;28.70;99286.25;5050545;28;20029;-38
2022/07/26 08:27:05;;;;;;;10.40;9.30;;;;;;;37.24;28.55;99286.69;5053262;28;20480;-38
2022/07/26 08:29:30;;;;;;;11.25;10.02;;;;;;;37.73;27.68;99287.91;5052791;28;20040;-37
2022/07/26 08:31:55;;;;;;;13.60;9.43;;;;;;;36.76;29.02;99278.66;5052984;28;20082;-37
2022/07/26 08:34:21;;;;;;;12.43;9.63;;;;;;;36.60;29.68;99282.56;5052881;28;20192;-38
2022/07/26 08:36:46;;;;;;;10.95;9.20;;;;;;;36.97;28.75;99272.38;5053389;28;20473;-37
2022/07/26 08:39:12;;;;;;;11.60;9.77;;;;;;;37.34;28.67;99262.94;5052587;28;20028;-36
2022/07/26 08:41:39;;;;;;;13.57;9.63;;;;;;;37.82;28.48;99273.63;5052685;28;20330;-36
2022/07/26 08:44:09;;;;;;;11.52;9.60;;;;;;;38.32;27.50;99267.16;5052889;28;20108;-38
2022/07/26 08:46:37;;;;;;;10.88;9.50;;;;;;;38.12;27.99;99267.63;5052712;28;20031;-37
2022/07/26 08:49:08;;;;;;;11.93;9.32;;;;;;;37.83;27.72;99271.63;5052723;28;20025;-36
2022/07/26 08:51:39;;;;;;;13.05;10.02;;;;;;;37.44;28.64;99269.69;5052712;28;20021;-37
2022/07/26 08:54:05;;;;;;;11.02;9.80;;;;;;;36.56;29.57;99269.88;5052695;28;20036;-37
2022/07/26 08:56:41;;;;;;;13.45;9.63;;;;;;;37.50;28.65;99271.63;5052297;28;20036;-37
2022/07/26 08:59:17;;;;;;;12.68;9.85;;;;;;;36.87;28.72;99260.09;5052282;28;20032;-37
2022/07/26 09:02:12;;;;;;;12.68;10.25;;;;;;;36.75;29.06;99263.25;5052565;28;20048;-38
2022/07/26 09:04:40;;;;;;;11.02;9.90;;;;;;;36.39;29.76;99263.88;5051095;28;20463;-36
2022/07/26 09:07:09;;;;;;;12.05;9.50;;;;;;;36.58;29.20;99262.75;5052659;28;20504;-37
2022/07/26 09:09:37;;;;;;;11.07;9.40;;;;;;;37.42;28.43;99260.97;5052107;28;20084;-37
2022/07/26 09:12:17;;;;;;;12.38;9.93;;;;;;;37.53;28.77;99248.66;5051911;28;20135;-37
2022/07/26 09:14:46;;;;;;;14.40;9.90;;;;;;;37.49;28.65;99249.84;5052352;28;20231;-38
2022/07/26 09:17:14;;;;;;;12.98;10.05;;;;;;;37.81;28.79;99247.03;5052374;28;20442;-36
2022/07/26 09:19:39;;;;;;;13.10;10.02;;;;;;;38.02;28.09;99242.63;5032407;28;20103;-38
2022/07/26 09:22:08;;;;;;;11.93;10.32;;;;;;;37.08;30.15;99237.16;5031971;28;20449;-37
2022/07/26 09:24:37;;;;;;;;;;;;;;;37.04;29.55;99235.56;5033053;28;20134;-37
2022/07/26 09:27:05;;;;;;;10.93;9.88;;;;;;;37.02;29.86;99238.72;5032066;28;19917;-37
2022/07/26 09:29:40;;;;;;;13.90;9.98;;;;;;;36.75;30.07;99236.31;5031886;28;20524;-37
2022/07/26 09:32:25;;;;;;;14.63;9.60;;;;;;;36.46;30.40;99231.84;5031871;28;20346;-38
2022/07/26 09:35:07;;;;;;;11.00;9.05;;;;;;;36.71;29.74;99224.44;5032273;28;20095;-37
2022/07/26 09:37:38;;;;;;;9.93;9.00;;;;;;;36.98;29.28;99219.31;5032346;28;20033;-38
2022/07/26 09:40:07;;;;;;;10.23;9.20;;;;;;;35.94;31.52;99223.69;5032067;28;20095;-38
2022/07/26 09:42:33;;;;;;;9.57;8.68;;;;;;;35.02;32.41;99219.81;5031831;28;20476;-37
2022/07/26 09:44:58;;;;;;;10.18;9.00;;;;;;;34.90;32.82;99220.91;5031821;28;20029;-37
2022/07/26 09:47:38;;;;;;;11.82;9.23;;;;;;;35.47;32.40;99215.09;5032136;28;20316;-38
2022/07/26 09:50:21;;;;;;;11.15;9.25;;;;;;;36.12;30.88;99215.47;5031492;28;20037;-36
2022/07/26 09:53:06;;;;;;;10.57;9.43;;;;;;;35.57;32.06;99219.88;5031798;28;20441;-36
2022/07/26 09:55:33;;;;;;;11.27;8.90;;;;;;;35.47;32.20;99212.31;5031116;28;20049;-37
2022/07/26 09:58:02;;;;;;;10.63;9.30;;;;;;;36.10;31.43;99210.34;5043423;28;20083;-36
2022/07/26 10:00:28;;;;;;;10.10;9.05;;;;;;;35.95;30.73;99214.22;5051283;28;20118;-36
2022/07/26 10:02:54;;;;;;;12.27;9.13;;;;;;;36.15;30.40;99200.84;5051102;28;20151;-37
2022/07/26 10:05:22;;;;;;;9.93;9.02;;;;;;;35.81;31.25;99199.13;5050915;28;20033;-36
2022/07/26 10:07:50;;;;;;;12.05;9.35;;;;;;;35.73;31.28;99205.78;5051387;28;20135;-38
2022/07/26 10:10:26;;;;;;;12.57;9.30;;;;;;;35.85;32.21;99184.50;5050836;28;20053;-37
2022/07/26 10:12:53;;;;;;;10.93;9.23;;;;;;;36.40;31.79;99192.66;5051258;28;20097;-37
2022/07/26 10:15:57;;;;;;;12.00;9.20;;;;;;;36.77;30.06;99188.81;5050958;28;20028;-37
2022/07/26 10:18:34;;;;;;;10.43;9.32;;;;;;;36.59;30.19;99194.28;5018915;28;20045;-36
2022/07/26 10:21:16;;;;;;;9.93;8.95;;;;;;;36.17;30.79;99182.69;5008750;28;20030;-37
2022/07/26 10:23:47;;;;;;;10.07;9.05;;;;;;;36.04;30.44;99169.56;5023715;28;20401;-37
2022/07/26 10:26:32;;;;;;;10.32;8.68;;;;;;;36.06;30.56;99178.25;5030930;28;20026;-38
2022/07/26 10:29:16;;;;;;;10.32;9.02;;;;;;;36.59;30.82;99175.69;5030410;28;20037;-37
2022/07/26 10:32:09;;;;;;;9.73;8.73;;;;;;;37.09;29.69;99161.09;5030987;28;20037;-37
2022/07/26 10:34:36;;;;;;;9.77;8.32;;;;;;;35.94;30.93;99168.34;5030792;28;20030;-37
2022/07/26 10:37:09;;;;;;;8.80;7.90;;;;;;;36.39;30.86;99166.16;5030715;28;20037;-35
2022/07/26 10:39:35;;;;;;;10.82;7.78;;;;;;;36.06;30.41;99159.66;5031085;28;20037;-37
2022/07/26 10:42:04;;;;;;;8.77;7.88;;;;;;;36.11;30.27;99158.50;5031015;28;20033;-36
2022/07/26 10:44:32;;;;;;;9.02;8.02;;;;;;;36.68;28.70;99153.16;5030752;28;20025;-37
2022/07/26 10:47:00;;;;;;;8.13;7.43;;;;;;;36.52;28.82;99152.69;5030320;28;20036;-37
2022/07/26 10:49:44;;;;;;;8.27;7.47;;;;;;;36.70;27.82;99147.22;5030809;28;20041;-36
2022/07/26 10:52:21;;;;;;;8.88;6.68;;;;;;;36.80;27.45;99129.81;5030802;28;20059;-36
2022/07/26 10:54:55;;;;;;;7.40;6.70;;;;;;;37.29;27.46;99128.22;5030888;28;20104;-37
2022/07/26 10:57:28;;;;;;;8.18;7.35;;;;;;;37.42;27.76;99133.34;5030556;28;20021;-37
2022/07/26 10:59:56;;;;;;;7.38;6.68;;;;;;;37.30;27.78;99127.03;5030412;28;20040;-39
2022/07/26 11:02:25;;;;;;;8.00;7.20;;;;;;;37.05;26.10;99126.22;5030650;28;20025;-37
2022/07/26 11:05:15;;;;;;;10.48;7.00;;;;;;;36.98;26.71;99121.50;5030756;28;20026;-37
2022/07/26 11:08:07;;;;;;;10.48;6.93;;;;;;;37.14;26.69;99118.34;5030651;28;20037;-37
2022/07/26 11:10:41;;;;;;;8.73;7.35;;;;;;;37.28;26.52;99112.78;5030555;28;20496;-37
2022/07/26 11:13:19;;;;;;;9.98;6.72;;;;;;;37.56;26.09;99111.09;5031161;28;20117;-38
2022/07/26 11:16:00;;;;;;;7.10;6.40;;;;;;;37.49;24.96;99109.16;5030420;28;20025;-37
2022/07/26 11:18:31;;;;;;;8.38;6.40;;;;;;;37.51;23.96;99098.44;5040239;28;20059;-37
2022/07/26 11:21:07;;;;;;;6.90;6.03;;;;;;;37.78;23.11;99097.97;5050176;28;20032;-36
2022/07/26 11:23:35;;;;;;;7.13;5.57;;;;;;;38.45;22.07;99090.47;5050547;28;20025;-37
2022/07/26 11:26:07;;;;;;;6.22;5.65;;;;;;;39.71;21.61;99082.94;5050529;28;20024;-38
2022/07/26 11:28:46;;;;;;;8.85;6.40;;;;;;;39.16;23.84;99091.06;5049560;28;20537;-37